createdAt,value
2018-11-11T00:00:24.234Z,99.90
2018-11-11T00:02:55.499Z,99.90
2018-11-11T00:05:25.399Z,99.90
2018-11-11T00:07:55.476Z,99.90
2018-11-11T00:10:26.503Z,99.90
2018-11-11T00:12:56.516Z,99.90
2018-11-11T00:15:26.469Z,99.90
2018-11-11T00:17:57.486Z,99.90
2018-11-11T00:20:27.498Z,99.90
2018-11-11T00:22:57.516Z,99.90
2018-11-11T00:25:27.483Z,99.90
2018-11-11T00:27:57.513Z,99.90
2018-11-11T00:30:33.212Z,99.90
2018-11-11T00:33:03.554Z,99.90
2018-11-11T00:35:33.569Z,99.90
2018-11-11T00:38:03.626Z,99.90
2018-11-11T00:40:33.603Z,99.90
2018-11-11T00:43:03.577Z,99.90
2018-11-11T00:45:33.546Z,99.90
2018-11-11T00:48:13.102Z,99.90
2018-11-11T00:50:43.560Z,99.90
2018-11-11T00:53:16.527Z,99.90
2018-11-11T00:55:46.623Z,99.90
2018-11-11T00:58:16.553Z,99.90
2018-11-11T01:00:46.521Z,99.90
2018-11-11T01:03:16.481Z,99.90
2018-11-11T01:05:46.577Z,99.90
2018-11-11T01:08:16.695Z,99.90
2018-11-11T01:10:46.713Z,99.90
2018-11-11T01:13:16.757Z,99.90
2018-11-11T01:15:46.747Z,99.90
2018-11-11T01:18:16.789Z,99.90
2018-11-11T01:20:47.219Z,99.90
2018-11-11T01:23:23.579Z,99.90
2018-11-11T01:25:53.517Z,99.90
2018-11-11T01:28:23.621Z,99.90
2018-11-11T01:30:53.817Z,99.90
2018-11-11T01:33:23.904Z,99.90
2018-11-11T01:35:53.909Z,99.90
2018-11-11T01:38:24.040Z,99.90
2018-11-11T01:40:54.130Z,99.90
2018-11-11T01:43:24.227Z,99.90
2018-11-11T01:45:54.345Z,99.90
2018-11-11T01:48:24.454Z,99.90
2018-11-11T01:50:54.729Z,99.90
2018-11-11T01:53:27.241Z,99.90
2018-11-11T01:55:57.305Z,99.90
2018-11-11T01:58:27.342Z,99.90
2018-11-11T02:00:58.679Z,99.90
2018-11-11T02:03:28.851Z,99.90
2018-11-11T02:05:58.789Z,99.90
2018-11-11T02:08:40.415Z,99.90
2018-11-11T02:11:10.491Z,99.90
2018-11-11T02:13:40.660Z,99.90
2018-11-11T02:16:10.660Z,99.90
2018-11-11T02:18:41.880Z,99.90
2018-11-11T02:21:12.093Z,99.90
2018-11-11T02:23:41.979Z,99.90
2018-11-11T02:26:11.982Z,99.90
2018-11-11T02:28:42.428Z,99.90
2018-11-11T02:31:13.189Z,99.90
2018-11-11T02:33:43.355Z,99.90
2018-11-11T02:36:13.468Z,99.90
2018-11-11T02:38:44.411Z,99.90
2018-11-11T02:41:14.413Z,99.90
2018-11-11T02:43:44.503Z,99.90
2018-11-11T02:46:14.615Z,99.90
2018-11-11T02:48:44.592Z,99.90
2018-11-11T02:51:16.738Z,99.90
2018-11-11T02:53:46.863Z,99.90
2018-11-11T02:56:17.055Z,99.90
2018-11-11T02:58:47.224Z,99.90
2018-11-11T03:01:17.530Z,99.90
2018-11-11T03:03:47.557Z,99.90
2018-11-11T03:06:17.590Z,99.90
2018-11-11T03:08:47.784Z,99.90
2018-11-11T03:11:17.774Z,99.90
2018-11-11T03:13:47.997Z,99.90
2018-11-11T03:16:19.191Z,99.90
2018-11-11T03:18:49.269Z,99.90
2018-11-11T03:21:19.313Z,99.90
2018-11-11T03:23:49.288Z,99.90
2018-11-11T03:26:19.412Z,99.90
2018-11-11T03:28:49.424Z,99.90
2018-11-11T03:31:19.443Z,99.90
2018-11-11T03:33:49.546Z,99.90
2018-11-11T03:36:19.850Z,99.90
2018-11-11T03:38:49.893Z,99.90
2018-11-11T03:41:20.030Z,99.90
2018-11-11T03:43:49.936Z,99.90
2018-11-11T03:46:20.015Z,99.90
2018-11-11T03:48:50.223Z,99.90
2018-11-11T03:51:20.325Z,99.90
2018-11-11T03:53:50.320Z,99.90
2018-11-11T03:56:21.212Z,99.90
2018-11-11T03:58:51.388Z,99.90
2018-11-11T04:01:22.193Z,99.90
2018-11-11T04:03:52.488Z,99.90
2018-11-11T04:06:22.646Z,99.90
2018-11-11T04:08:52.580Z,99.90
2018-11-11T04:11:22.779Z,99.90
2018-11-11T04:14:17.983Z,99.90
2018-11-11T04:16:48.127Z,99.90
2018-11-11T04:19:18.184Z,99.90
2018-11-11T04:21:48.259Z,99.90
2018-11-11T04:24:18.465Z,99.90
2018-11-11T04:26:49.379Z,99.90
2018-11-11T04:29:26.106Z,99.90
2018-11-11T04:31:56.205Z,99.90
2018-11-11T04:34:28.266Z,99.90
2018-11-11T04:37:26.525Z,99.90
2018-11-11T04:39:56.778Z,99.90
2018-11-11T04:42:30.417Z,99.90
2018-11-11T04:45:00.704Z,99.90
2018-11-11T04:47:30.730Z,99.90
2018-11-11T04:50:00.823Z,99.90
2018-11-11T04:52:31.102Z,99.90
2018-11-11T04:55:07.028Z,99.90
2018-11-11T04:57:37.192Z,99.90
2018-11-11T05:00:09.755Z,99.90
2018-11-11T05:02:40.103Z,99.90
2018-11-11T05:05:11.319Z,99.90
2018-11-11T05:07:44.789Z,99.90
2018-11-11T05:10:21.475Z,99.90
2018-11-11T05:12:51.567Z,99.90
2018-11-11T05:15:21.608Z,99.90
2018-11-11T05:17:51.659Z,99.90
2018-11-11T05:20:21.673Z,99.90
2018-11-11T05:22:51.841Z,99.90
2018-11-11T05:25:22.068Z,99.90
2018-11-11T05:27:52.838Z,99.90
2018-11-11T05:30:22.870Z,99.90
2018-11-11T05:32:53.209Z,99.90
2018-11-11T05:35:24.171Z,99.90
2018-11-11T05:37:54.397Z,99.90
2018-11-11T05:40:27.965Z,99.90
2018-11-11T05:42:59.078Z,99.90
2018-11-11T05:45:29.303Z,99.90
2018-11-11T05:47:59.472Z,99.90
2018-11-11T05:50:29.710Z,99.90
2018-11-11T05:53:00.598Z,99.90
2018-11-11T05:55:30.579Z,99.90
2018-11-11T05:58:01.146Z,99.90
2018-11-11T06:00:31.163Z,99.90
2018-11-11T06:03:01.213Z,99.90
2018-11-11T06:05:31.208Z,99.90
2018-11-11T06:08:05.377Z,99.90
2018-11-11T06:10:35.661Z,99.90
2018-11-11T06:13:05.761Z,99.90
2018-11-11T06:15:36.101Z,99.90
2018-11-11T06:18:06.511Z,99.90
2018-11-11T06:20:36.627Z,99.90
2018-11-11T06:23:06.692Z,99.90
2018-11-11T06:25:36.874Z,99.90
2018-11-11T06:28:07.098Z,99.90
2018-11-11T06:30:37.453Z,99.90
2018-11-11T06:33:07.499Z,99.90
2018-11-11T06:35:37.656Z,99.90
2018-11-11T06:38:07.682Z,99.90
2018-11-11T06:40:37.814Z,99.90
2018-11-11T06:43:07.775Z,99.90
2018-11-11T06:45:38.175Z,99.90
2018-11-11T06:48:08.623Z,99.90
2018-11-11T06:50:38.580Z,99.90
2018-11-11T06:53:09.138Z,99.90
2018-11-11T06:55:40.381Z,99.90
2018-11-11T06:58:10.900Z,99.90
2018-11-11T07:00:40.866Z,99.90
2018-11-11T07:03:29.976Z,99.90
2018-11-11T07:06:00.098Z,99.90
2018-11-11T07:08:31.363Z,99.90
2018-11-11T07:11:02.498Z,99.90
2018-11-11T07:13:32.592Z,99.90
2018-11-11T07:16:02.862Z,99.90
2018-11-11T07:18:32.995Z,99.90
2018-11-11T07:21:03.332Z,99.90
2018-11-11T07:23:33.452Z,99.90
2018-11-11T07:26:03.893Z,99.90
2018-11-11T07:28:35.755Z,99.90
2018-11-11T07:31:08.754Z,99.90
2018-11-11T07:33:39.321Z,99.90
2018-11-11T07:36:10.469Z,99.90
2018-11-11T07:38:40.694Z,99.90
2018-11-11T07:41:10.771Z,99.90
2018-11-11T07:43:40.854Z,99.90
2018-11-11T07:46:10.989Z,99.90
2018-11-11T07:48:41.993Z,99.90
2018-11-11T07:51:12.006Z,99.90
2018-11-11T07:53:44.025Z,99.90
2018-11-11T07:56:18.349Z,99.90
2018-11-11T07:58:48.433Z,99.90
2018-11-11T08:01:18.531Z,99.90
2018-11-11T08:03:48.490Z,99.90
2018-11-11T08:06:20.590Z,99.90
2018-11-11T08:08:50.813Z,99.90
2018-11-11T08:11:38.425Z,99.90
2018-11-11T08:14:09.152Z,99.90
2018-11-11T08:16:39.262Z,97.10
2018-11-11T08:19:10.776Z,98.70
2018-11-11T08:21:41.174Z,95.10
2018-11-11T08:24:11.387Z,92.40
2018-11-11T08:26:41.751Z,89.00
2018-11-11T08:29:12.088Z,88.00
2018-11-11T08:31:43.122Z,83.70
2018-11-11T08:34:13.138Z,82.60
2018-11-11T08:36:43.906Z,79.40
2018-11-11T08:39:15.218Z,80.50
2018-11-11T08:41:45.861Z,80.30
2018-11-11T08:44:16.502Z,78.40
2018-11-11T08:46:47.094Z,79.20
2018-11-11T08:49:17.499Z,81.50
2018-11-11T08:51:47.703Z,87.40
2018-11-11T08:54:17.697Z,85.20
2018-11-11T08:56:48.518Z,85.00
2018-11-11T08:59:18.524Z,84.70
2018-11-11T09:01:48.503Z,83.30
2018-11-11T09:04:18.588Z,80.80
2018-11-11T09:06:48.606Z,77.50
2018-11-11T09:09:19.284Z,74.40
2018-11-11T09:11:49.393Z,72.90
2018-11-11T09:14:19.363Z,68.20
2018-11-11T09:16:49.425Z,64.60
2018-11-11T09:19:19.458Z,65.70
2018-11-11T09:21:49.462Z,66.80
2018-11-11T09:24:19.368Z,67.60
2018-11-11T09:26:49.777Z,65.20
2018-11-11T09:29:19.800Z,65.50
2018-11-11T09:31:50.144Z,63.40
2018-11-11T09:34:20.674Z,66.10
2018-11-11T09:36:52.133Z,64.30
2018-11-11T09:39:25.424Z,64.10
2018-11-11T09:42:00.685Z,63.90
2018-11-11T09:44:33.031Z,61.30
2018-11-11T09:47:03.168Z,62.60
2018-11-11T09:49:33.096Z,63.60
2018-11-11T09:52:03.616Z,63.50
2018-11-11T09:54:33.671Z,61.80
2018-11-11T09:57:04.399Z,61.30
2018-11-11T09:59:34.327Z,59.50
2018-11-11T10:02:04.336Z,59.50
2018-11-11T10:04:43.330Z,62.40
2018-11-11T10:07:17.868Z,61.60
2018-11-11T10:09:53.171Z,61.30
2018-11-11T10:12:31.317Z,58.90
2018-11-11T10:15:07.441Z,59.00
2018-11-11T10:17:42.269Z,60.10
2018-11-11T10:22:22.981Z,58.80
2018-11-11T10:27:01.481Z,58.50
2018-11-11T10:29:48.553Z,57.80
2018-11-11T10:32:45.758Z,58.10
2018-11-11T10:35:20.046Z,60.30
2018-11-11T10:37:54.265Z,62.10
2018-11-11T10:40:31.492Z,64.20
2018-11-11T10:43:05.718Z,64.40
2018-11-11T10:45:46.784Z,65.40
2018-11-11T10:48:21.956Z,67.10
2018-11-11T10:50:56.649Z,67.00
2018-11-11T10:53:30.318Z,65.90
2018-11-11T10:56:01.313Z,66.60
2018-11-11T10:58:33.506Z,66.50
2018-11-11T11:01:14.856Z,65.60
2018-11-11T11:03:45.612Z,66.50
2018-11-11T11:06:16.384Z,67.00
2018-11-11T11:08:51.645Z,67.10
2018-11-11T11:11:22.177Z,65.00
2018-11-11T11:13:52.922Z,63.80
2018-11-11T11:16:24.469Z,62.80
2018-11-11T11:18:54.377Z,63.10
2018-11-11T11:21:24.298Z,59.70
2018-11-11T11:23:54.168Z,58.00
2018-11-11T11:26:24.081Z,56.80
2018-11-11T11:28:54.035Z,56.80
2018-11-11T11:31:24.121Z,57.50
2018-11-11T11:33:53.987Z,58.20
2018-11-11T11:36:23.952Z,59.40
2018-11-11T11:38:56.993Z,61.20
2018-11-11T11:41:28.294Z,62.60
2018-11-11T11:43:58.509Z,62.30
2018-11-11T11:46:28.634Z,63.00
2018-11-11T11:49:04.309Z,63.40
2018-11-11T11:51:38.576Z,62.00
2018-11-11T11:54:14.246Z,61.00
2018-11-11T11:56:48.481Z,61.80
2018-11-11T11:59:21.333Z,61.60
2018-11-11T12:01:56.759Z,61.20
2018-11-11T12:04:27.551Z,59.80
2018-11-11T12:06:59.729Z,59.40
2018-11-11T12:09:32.231Z,60.00
2018-11-11T12:12:02.799Z,60.00
2018-11-11T12:14:39.356Z,59.60
2018-11-11T12:17:12.988Z,60.60
2018-11-11T12:19:43.227Z,59.80
2018-11-11T12:22:13.274Z,58.60
2018-11-11T12:24:45.107Z,57.80
2018-11-11T12:27:18.658Z,58.30
2018-11-11T12:29:49.488Z,58.50
2018-11-11T12:32:20.630Z,56.70
2018-11-11T12:34:50.957Z,55.40
2018-11-11T12:37:21.091Z,54.20
2018-11-11T12:39:54.826Z,52.60
2018-11-11T12:42:24.869Z,51.90
2018-11-11T12:44:55.006Z,52.60
2018-11-11T12:47:25.913Z,53.30
2018-11-11T12:49:55.990Z,55.20
2018-11-11T12:52:27.124Z,55.00
2018-11-11T12:54:57.103Z,56.00
2018-11-11T12:57:26.993Z,56.20
2018-11-11T12:59:57.377Z,56.20
2018-11-11T13:02:27.465Z,56.50
2018-11-11T13:04:58.005Z,57.30
2018-11-11T13:07:28.063Z,57.50
2018-11-11T13:09:59.199Z,57.70
2018-11-11T13:12:29.577Z,58.30
2018-11-11T13:14:59.597Z,57.50
2018-11-11T13:17:29.817Z,57.70
2018-11-11T13:20:00.953Z,58.00
2018-11-11T13:22:30.903Z,58.20
2018-11-11T13:25:00.954Z,57.80
2018-11-11T13:27:31.582Z,58.10
2018-11-11T13:30:02.630Z,57.50
2018-11-11T13:32:33.057Z,58.50
2018-11-11T13:35:03.846Z,57.40
2018-11-11T13:37:35.513Z,57.60
2018-11-11T13:40:09.722Z,56.80
2018-11-11T13:42:42.304Z,57.10
2018-11-11T13:45:16.469Z,56.90
2018-11-11T13:47:47.722Z,57.40
2018-11-11T13:50:22.519Z,57.10
2018-11-11T13:52:54.349Z,56.20
2018-11-11T13:55:25.087Z,55.70
2018-11-11T13:57:55.577Z,56.20
2018-11-11T14:00:27.392Z,55.50
2018-11-11T14:03:03.741Z,55.50
2018-11-11T14:05:33.711Z,55.00
2018-11-11T14:08:03.653Z,54.80
2018-11-11T14:10:33.512Z,54.40
2018-11-11T14:13:03.712Z,53.60
2018-11-11T14:15:33.654Z,53.30
2018-11-11T14:18:03.694Z,51.90
2018-11-11T14:20:33.665Z,51.80
2018-11-11T14:23:04.713Z,51.20
2018-11-11T14:25:34.745Z,51.60
2018-11-11T14:28:06.777Z,52.10
2018-11-11T14:30:38.237Z,52.30
2018-11-11T14:33:09.487Z,52.60
2018-11-11T14:35:40.245Z,52.00
2018-11-11T14:38:11.059Z,53.00
2018-11-11T14:40:41.269Z,52.70
2018-11-11T14:43:13.517Z,52.80
2018-11-11T14:45:44.376Z,53.30
2018-11-11T14:48:14.797Z,53.20
2018-11-11T14:50:45.179Z,52.70
2018-11-11T14:53:15.659Z,52.60
2018-11-11T14:55:46.222Z,52.50
2018-11-11T14:58:16.542Z,53.10
2018-11-11T15:00:52.211Z,52.70
2018-11-11T15:03:22.385Z,53.80
2018-11-11T15:05:53.149Z,52.90
2018-11-11T15:08:23.219Z,52.80
2018-11-11T15:10:53.410Z,52.50
2018-11-11T15:13:23.560Z,52.80
2018-11-11T15:15:53.585Z,53.00
2018-11-11T15:18:24.333Z,52.90
2018-11-11T15:20:56.374Z,52.80
2018-11-11T15:23:26.266Z,52.60
2018-11-11T15:25:56.406Z,52.50
2018-11-11T15:28:26.569Z,52.70
2018-11-11T15:30:56.779Z,52.80
2018-11-11T15:33:26.773Z,53.20
2018-11-11T15:35:56.984Z,52.90
2018-11-11T15:38:28.250Z,53.10
2018-11-11T15:40:58.991Z,53.10
2018-11-11T15:43:29.087Z,52.90
2018-11-11T15:45:59.181Z,53.30
2018-11-11T15:48:30.284Z,53.40
2018-11-11T15:51:00.583Z,53.80
2018-11-11T15:53:31.090Z,53.70
2018-11-11T15:56:01.304Z,54.20
2018-11-11T15:58:31.837Z,54.50
2018-11-11T16:01:02.407Z,54.10
2018-11-11T16:03:32.627Z,54.50
2018-11-11T16:06:02.886Z,54.40
2018-11-11T16:08:33.041Z,55.30
2018-11-11T16:11:03.363Z,55.20
2018-11-11T16:13:34.680Z,55.40
2018-11-11T16:16:05.820Z,55.00
2018-11-11T16:18:35.809Z,55.70
2018-11-11T16:21:06.243Z,55.80
2018-11-11T16:23:44.168Z,55.30
2018-11-11T16:26:15.571Z,55.20
2018-11-11T16:28:46.566Z,55.50
2018-11-11T16:31:21.562Z,56.20
2018-11-11T16:33:52.643Z,56.10
2018-11-11T16:36:22.882Z,56.80
2018-11-11T16:38:53.134Z,58.90
2018-11-11T16:41:23.150Z,59.40
2018-11-11T16:43:52.939Z,59.80
2018-11-11T16:46:22.847Z,58.20
2018-11-11T16:48:53.624Z,58.70
2018-11-11T16:51:23.753Z,60.90
2018-11-11T16:53:53.572Z,61.90
2018-11-11T16:56:23.546Z,61.50
2018-11-11T16:58:53.458Z,62.90
2018-11-11T17:01:23.384Z,61.30
2018-11-11T17:03:53.303Z,61.70
2018-11-11T17:06:23.304Z,60.10
2018-11-11T17:08:53.313Z,59.00
2018-11-11T17:11:23.247Z,59.30
2018-11-11T17:13:53.355Z,59.40
2018-11-11T17:16:23.453Z,60.70
2018-11-11T17:18:57.547Z,61.90
2018-11-11T17:21:27.526Z,60.00
2018-11-11T17:24:01.344Z,63.60
2018-11-11T17:26:44.126Z,62.30
2018-11-11T17:29:14.077Z,64.10
2018-11-11T17:31:47.938Z,63.90
2018-11-11T17:34:17.867Z,62.80
2018-11-11T17:36:48.699Z,63.00
2018-11-11T17:39:24.630Z,62.70
2018-11-11T17:41:56.254Z,63.80
2018-11-11T17:44:26.232Z,65.40
2018-11-11T17:46:57.655Z,64.30
2018-11-11T17:49:27.754Z,64.80
2018-11-11T17:51:59.844Z,69.80
2018-11-11T17:54:30.068Z,66.00
2018-11-11T17:57:00.605Z,67.50
2018-11-11T17:59:30.727Z,68.30
2018-11-11T18:02:01.853Z,67.90
2018-11-11T18:04:32.069Z,71.70
2018-11-11T18:07:02.315Z,66.50
2018-11-11T18:09:32.420Z,67.20
2018-11-11T18:12:02.936Z,70.00
2018-11-11T18:14:34.051Z,72.40
2018-11-11T18:17:04.585Z,73.30
2018-11-11T18:19:38.241Z,72.50
2018-11-11T18:22:08.285Z,75.80
2018-11-11T18:24:38.307Z,72.90
2018-11-11T18:27:08.664Z,71.30
2018-11-11T18:29:43.485Z,76.60
2018-11-11T18:32:16.474Z,69.50
2018-11-11T18:34:47.025Z,71.40
2018-11-11T18:37:20.834Z,68.50
2018-11-11T18:39:51.845Z,68.30
2018-11-11T18:42:21.814Z,70.60
2018-11-11T18:44:57.361Z,73.40
2018-11-11T18:47:29.044Z,71.70
2018-11-11T18:49:59.062Z,72.60
2018-11-11T18:52:30.397Z,70.80
2018-11-11T18:55:01.108Z,72.80
2018-11-11T18:57:32.409Z,74.70
2018-11-11T19:00:03.399Z,74.70
2018-11-11T19:02:33.679Z,75.50
2018-11-11T19:05:04.393Z,76.50
2018-11-11T19:07:34.657Z,78.40
2018-11-11T19:10:05.210Z,73.00
2018-11-11T19:12:36.074Z,74.70
2018-11-11T19:15:14.194Z,73.80
2018-11-11T19:17:45.030Z,71.80
2018-11-11T19:20:17.757Z,71.60
2018-11-11T19:22:48.768Z,73.00
2018-11-11T19:25:21.068Z,72.70
2018-11-11T19:27:52.230Z,72.70
2018-11-11T19:30:23.362Z,73.10
2018-11-11T19:32:53.852Z,71.80
2018-11-11T19:35:24.141Z,74.90
2018-11-11T19:37:55.526Z,77.50
2018-11-11T19:40:28.462Z,76.30
2018-11-11T19:43:08.371Z,78.00
2018-11-11T19:45:41.785Z,76.30
2018-11-11T19:48:28.271Z,77.10
2018-11-11T19:51:00.389Z,77.50
2018-11-11T19:53:33.630Z,77.20
2018-11-11T19:56:03.880Z,77.50
2018-11-11T19:58:34.025Z,77.20
2018-11-11T20:01:09.210Z,76.00
2018-11-11T20:03:40.554Z,77.80
2018-11-11T20:06:35.626Z,76.40
2018-11-11T20:09:10.781Z,76.30
2018-11-11T20:11:41.029Z,76.80
2018-11-11T20:14:11.566Z,75.90
2018-11-11T20:16:43.197Z,75.10
2018-11-11T20:19:13.535Z,77.40
2018-11-11T20:21:43.744Z,77.70
2018-11-11T20:24:13.840Z,80.40
2018-11-11T20:26:43.897Z,79.50
2018-11-11T20:29:14.457Z,81.70
2018-11-11T20:31:44.589Z,80.40
2018-11-11T20:34:27.745Z,83.00
2018-11-11T20:37:04.366Z,82.80
2018-11-11T20:39:34.481Z,81.40
2018-11-11T20:42:04.989Z,81.40
2018-11-11T20:44:35.037Z,81.60
2018-11-11T20:47:06.646Z,82.30
2018-11-11T20:49:37.553Z,85.20
2018-11-11T20:52:11.200Z,86.30
2018-11-11T20:54:43.063Z,87.50
2018-11-11T20:57:15.541Z,84.10
2018-11-11T20:59:46.897Z,85.80
2018-11-11T21:02:16.881Z,85.00
2018-11-11T21:04:47.340Z,87.00
2018-11-11T21:07:17.744Z,84.60
2018-11-11T21:09:52.191Z,86.10
2018-11-11T21:12:22.370Z,87.40
2018-11-11T21:14:52.421Z,88.70
2018-11-11T21:17:22.543Z,89.90
2018-11-11T21:19:52.497Z,90.00
2018-11-11T21:22:22.356Z,92.10
2018-11-11T21:24:53.193Z,90.90
2018-11-11T21:27:23.202Z,90.30
2018-11-11T21:29:53.137Z,89.60
2018-11-11T21:32:28.716Z,88.50
2018-11-11T21:34:58.604Z,84.40
2018-11-11T21:37:29.903Z,81.10
2018-11-11T21:40:00.527Z,79.10
2018-11-11T21:42:33.967Z,78.50
2018-11-11T21:45:03.966Z,79.70
2018-11-11T21:47:38.966Z,79.70
2018-11-11T21:50:11.836Z,81.20
2018-11-11T21:52:42.935Z,79.90
2018-11-11T21:55:14.958Z,82.00
2018-11-11T21:57:45.219Z,82.00
2018-11-11T22:00:18.766Z,82.40
2018-11-11T22:02:49.452Z,82.10
2018-11-11T22:05:20.792Z,82.00
2018-11-11T22:07:52.188Z,82.90
2018-11-11T22:10:26.272Z,82.50
2018-11-11T22:12:57.031Z,82.50
2018-11-11T22:15:27.996Z,82.30
2018-11-11T22:19:23.261Z,82.80
2018-11-11T22:22:02.585Z,83.80
2018-11-11T22:24:36.785Z,85.40
2018-11-11T22:27:19.530Z,85.40
2018-11-11T22:29:49.813Z,85.00
2018-11-11T22:32:20.746Z,85.40
2018-11-11T22:34:51.406Z,86.10
2018-11-11T22:37:23.604Z,86.60
2018-11-11T22:39:53.697Z,88.10
2018-11-11T22:42:23.880Z,88.80
2018-11-11T22:44:54.230Z,88.90
2018-11-11T22:47:24.387Z,88.60
2018-11-11T22:49:55.516Z,88.90
2018-11-11T22:52:26.602Z,89.80
2018-11-11T22:54:56.755Z,89.80
2018-11-11T22:57:31.601Z,90.90
2018-11-11T23:00:01.994Z,90.20
2018-11-11T23:02:38.414Z,91.30
2018-11-11T23:05:08.469Z,92.00
2018-11-11T23:07:38.569Z,93.00
2018-11-11T23:10:09.054Z,92.50
2018-11-11T23:12:39.300Z,93.50
2018-11-11T23:15:11.998Z,92.70
2018-11-11T23:17:42.054Z,93.10
2018-11-11T23:20:14.097Z,93.40
2018-11-11T23:22:44.315Z,94.70
2018-11-11T23:25:15.684Z,94.30
2018-11-11T23:27:46.831Z,93.40
2018-11-11T23:30:20.452Z,93.70
2018-11-11T23:32:50.965Z,93.70
2018-11-11T23:35:21.069Z,94.90
2018-11-11T23:37:55.835Z,94.20
2018-11-11T23:40:26.000Z,92.50
2018-11-11T23:42:55.929Z,94.90
2018-11-11T23:45:25.923Z,95.70
2018-11-11T23:47:55.937Z,96.10
2018-11-11T23:50:29.547Z,96.80
2018-11-11T23:52:59.538Z,97.70
2018-11-11T23:55:29.560Z,97.40
2018-11-11T23:57:59.481Z,97.20
